Walsenburg, Colorado
Current Conditions -  °F | °C
As of 6:54 AM on Monday 26 Jan 2015 (Local Time) from KTAD Reporting Station
Clear Clear  
Wind Chill: -3°   Ceiling: Unl
Heat Index:   Visibility: 10mi
Dew Point: -5°   Wind: 17mph
Humidity: 59%   Direction: 250°WSW
Pressure: 30.29"   Gusts: NA
Location:  37.62°N, 104.78°W
Report Text: KTAD 261354Z AUTO 25015KT 10SM CLR 02/M05 A3029 RMK AO2 SLP256 T00221050
Loading
Personal Weather Stations






























Interactive Weather Map New forecast layout! Learn more

10-Day Weather Forecast

Advertisements
Track Severe Weather on mobile